<?xml version="1.0" encoding="UTF-8" standalone="no" ?>
<gpx xmlns="http://www.topografix.com/GPX/1/1" xmlns:xsi="http://www.w3.org/2001/XMLSchema-instance" xsi:schemaLocation="http://www.topografix.com/GPX/1/1 http://www.topografix.com/GPX/1/1/gpx.xsd" version="1.1" creator="VisuGPX - https://www.visugpx.com">
  <metadata>
    <name>11666063-Rando des copains</name>
  </metadata>
  <trk>
    <name><![CDATA[11666063-Rando des copains]]></name>
    <trkseg>
      <trkpt lat="45.97993" lon="-1.04047">
        <ele>4</ele>
        <time>2020-07-13T13:02:09Z</time>
      </trkpt>
      <trkpt lat="45.97942" lon="-1.03896">
        <ele>3</ele>
        <time>2020-07-13T13:04:45Z</time>
      </trkpt>
      <trkpt lat="45.97909" lon="-1.038">
        <ele>1</ele>
        <time>2020-07-13T13:06:24Z</time>
      </trkpt>
      <trkpt lat="45.97587" lon="-1.03532">
        <ele>2</ele>
        <time>2020-07-13T13:14:40Z</time>
      </trkpt>
      <trkpt lat="45.97191" lon="-1.03216">
        <ele>1</ele>
        <time>2020-07-13T13:24:45Z</time>
      </trkpt>
      <trkpt lat="45.96437" lon="-1.02619">
        <ele>1</ele>
        <time>2020-07-13T13:43:53Z</time>
      </trkpt>
      <trkpt lat="45.96264" lon="-1.03392">
        <ele>2</ele>
        <time>2020-07-13T13:56:26Z</time>
      </trkpt>
      <trkpt lat="45.96281" lon="-1.03591">
        <ele>1</ele>
        <time>2020-07-13T13:59:32Z</time>
      </trkpt>
      <trkpt lat="45.96125" lon="-1.04377">
        <ele>1</ele>
        <time>2020-07-13T14:12:11Z</time>
      </trkpt>
      <trkpt lat="45.96115" lon="-1.04502">
        <ele>3</ele>
        <time>2020-07-13T14:14:07Z</time>
      </trkpt>
      <trkpt lat="45.96049" lon="-1.04497">
        <ele>2</ele>
        <time>2020-07-13T14:15:36Z</time>
      </trkpt>
      <trkpt lat="45.95621" lon="-1.06265">
        <ele>3</ele>
        <time>2020-07-13T14:44:32Z</time>
      </trkpt>
      <trkpt lat="45.95607" lon="-1.0663">
        <ele>2</ele>
        <time>2020-07-13T14:50:12Z</time>
      </trkpt>
      <trkpt lat="45.95873" lon="-1.07498">
        <ele>2</ele>
        <time>2020-07-13T15:04:52Z</time>
      </trkpt>
      <trkpt lat="45.95935" lon="-1.07457">
        <ele>1</ele>
        <time>2020-07-13T15:06:23Z</time>
      </trkpt>
      <trkpt lat="45.96063" lon="-1.07753">
        <ele>1</ele>
        <time>2020-07-13T15:11:46Z</time>
      </trkpt>
      <trkpt lat="45.96565" lon="-1.08192">
        <ele>2</ele>
        <time>2020-07-13T15:24:50Z</time>
      </trkpt>
      <trkpt lat="45.97551" lon="-1.08302">
        <ele>3</ele>
        <time>2020-07-13T15:46:50Z</time>
      </trkpt>
      <trkpt lat="45.9797" lon="-1.08368">
        <ele>4</ele>
        <time>2020-07-13T15:56:12Z</time>
      </trkpt>
      <trkpt lat="45.98064" lon="-1.08526">
        <ele>5</ele>
        <time>2020-07-13T15:59:25Z</time>
      </trkpt>
      <trkpt lat="45.98152" lon="-1.08618">
        <ele>6</ele>
        <time>2020-07-13T16:01:50Z</time>
      </trkpt>
      <trkpt lat="45.98167" lon="-1.08723">
        <ele>5</ele>
        <time>2020-07-13T16:03:30Z</time>
      </trkpt>
      <trkpt lat="45.98216" lon="-1.08896">
        <ele>7</ele>
        <time>2020-07-13T16:06:23Z</time>
      </trkpt>
      <trkpt lat="45.9817" lon="-1.09019">
        <ele>3</ele>
        <time>2020-07-13T16:08:32Z</time>
      </trkpt>
      <trkpt lat="45.98197" lon="-1.09128">
        <ele>3</ele>
        <time>2020-07-13T16:10:20Z</time>
      </trkpt>
      <trkpt lat="45.98413" lon="-1.09225">
        <ele>8</ele>
        <time>2020-07-13T16:15:22Z</time>
      </trkpt>
      <trkpt lat="45.98452" lon="-1.09371">
        <ele>10</ele>
        <time>2020-07-13T16:17:47Z</time>
      </trkpt>
      <trkpt lat="45.9837" lon="-1.09549">
        <ele>3</ele>
        <time>2020-07-13T16:21:05Z</time>
      </trkpt>
      <trkpt lat="45.98431" lon="-1.09634">
        <ele>6</ele>
        <time>2020-07-13T16:22:58Z</time>
      </trkpt>
      <trkpt lat="45.98535" lon="-1.09751">
        <ele>4</ele>
        <time>2020-07-13T16:25:54Z</time>
      </trkpt>
      <trkpt lat="45.98674" lon="-1.09771">
        <ele>9</ele>
        <time>2020-07-13T16:29:01Z</time>
      </trkpt>
      <trkpt lat="45.98853" lon="-1.09822">
        <ele>3</ele>
        <time>2020-07-13T16:33:04Z</time>
      </trkpt>
      <trkpt lat="45.98972" lon="-1.09837">
        <ele>8</ele>
        <time>2020-07-13T16:35:43Z</time>
      </trkpt>
      <trkpt lat="45.9909" lon="-1.09839">
        <ele>13</ele>
        <time>2020-07-13T16:38:21Z</time>
      </trkpt>
      <trkpt lat="45.99183" lon="-1.09845">
        <ele>13</ele>
        <time>2020-07-13T16:40:25Z</time>
      </trkpt>
      <trkpt lat="45.99233" lon="-1.09715">
        <ele>5</ele>
        <time>2020-07-13T16:42:43Z</time>
      </trkpt>
      <trkpt lat="45.99193" lon="-1.09618">
        <ele>4</ele>
        <time>2020-07-13T16:44:28Z</time>
      </trkpt>
      <trkpt lat="45.99179" lon="-1.09423">
        <ele>3</ele>
        <time>2020-07-13T16:47:29Z</time>
      </trkpt>
      <trkpt lat="45.99219" lon="-1.09173">
        <ele>3</ele>
        <time>2020-07-13T16:51:27Z</time>
      </trkpt>
      <trkpt lat="45.99281" lon="-1.08996">
        <ele>3</ele>
        <time>2020-07-13T16:54:31Z</time>
      </trkpt>
      <trkpt lat="45.9935" lon="-1.0884">
        <ele>2</ele>
        <time>2020-07-13T16:57:22Z</time>
      </trkpt>
      <trkpt lat="45.99583" lon="-1.08279">
        <ele>2</ele>
        <time>2020-07-13T17:07:28Z</time>
      </trkpt>
      <trkpt lat="45.99668" lon="-1.08055">
        <ele>2</ele>
        <time>2020-07-13T17:11:25Z</time>
      </trkpt>
      <trkpt lat="45.99603" lon="-1.07842">
        <ele>2</ele>
        <time>2020-07-13T17:15:01Z</time>
      </trkpt>
      <trkpt lat="45.9957" lon="-1.0764">
        <ele>6</ele>
        <time>2020-07-13T17:18:13Z</time>
      </trkpt>
      <trkpt lat="45.99605" lon="-1.07265">
        <ele>6</ele>
        <time>2020-07-13T17:24:04Z</time>
      </trkpt>
      <trkpt lat="45.99558" lon="-1.07005">
        <ele>8</ele>
        <time>2020-07-13T17:28:13Z</time>
      </trkpt>
      <trkpt lat="45.99437" lon="-1.06622">
        <ele>4</ele>
        <time>2020-07-13T17:34:43Z</time>
      </trkpt>
      <trkpt lat="45.99417" lon="-1.06063">
        <ele>1</ele>
        <time>2020-07-13T17:43:22Z</time>
      </trkpt>
      <trkpt lat="45.99345" lon="-1.05933">
        <ele>3</ele>
        <time>2020-07-13T17:45:56Z</time>
      </trkpt>
      <trkpt lat="45.99149" lon="-1.06027">
        <ele>2</ele>
        <time>2020-07-13T17:50:32Z</time>
      </trkpt>
      <trkpt lat="45.99016" lon="-1.06146">
        <ele>7</ele>
        <time>2020-07-13T17:54:01Z</time>
      </trkpt>
      <trkpt lat="45.98956" lon="-1.05782">
        <ele>9</ele>
        <time>2020-07-13T17:59:47Z</time>
      </trkpt>
      <trkpt lat="45.98786" lon="-1.05803">
        <ele>12</ele>
        <time>2020-07-13T18:03:35Z</time>
      </trkpt>
      <trkpt lat="45.98816" lon="-1.0598">
        <ele>10</ele>
        <time>2020-07-13T18:06:24Z</time>
      </trkpt>
      <trkpt lat="45.98505" lon="-1.06128">
        <ele>6</ele>
        <time>2020-07-13T18:13:41Z</time>
      </trkpt>
      <trkpt lat="45.98495" lon="-1.05709">
        <ele>9</ele>
        <time>2020-07-13T18:20:10Z</time>
      </trkpt>
      <trkpt lat="45.9844" lon="-1.05377">
        <ele>3</ele>
        <time>2020-07-13T18:25:26Z</time>
      </trkpt>
      <trkpt lat="45.98397" lon="-1.0523">
        <ele>4</ele>
        <time>2020-07-13T18:27:54Z</time>
      </trkpt>
      <trkpt lat="45.985" lon="-1.04991">
        <ele>6</ele>
        <time>2020-07-13T18:32:15Z</time>
      </trkpt>
      <trkpt lat="45.98475" lon="-1.04883">
        <ele>7</ele>
        <time>2020-07-13T18:34:01Z</time>
      </trkpt>
      <trkpt lat="45.98302" lon="-1.04962">
        <ele>5</ele>
        <time>2020-07-13T18:38:03Z</time>
      </trkpt>
      <trkpt lat="45.98246" lon="-1.04883">
        <ele>5</ele>
        <time>2020-07-13T18:39:48Z</time>
      </trkpt>
      <trkpt lat="45.98219" lon="-1.0458">
        <ele>9</ele>
        <time>2020-07-13T18:44:31Z</time>
      </trkpt>
      <trkpt lat="45.98189" lon="-1.04338">
        <ele>8</ele>
        <time>2020-07-13T18:48:19Z</time>
      </trkpt>
      <trkpt lat="45.98264" lon="-1.04262">
        <ele>8</ele>
        <time>2020-07-13T18:50:21Z</time>
      </trkpt>
      <trkpt lat="45.98169" lon="-1.04093">
        <ele>7</ele>
        <time>2020-07-13T18:53:43Z</time>
      </trkpt>
      <trkpt lat="45.98058" lon="-1.04136">
        <ele>6</ele>
        <time>2020-07-13T18:56:16Z</time>
      </trkpt>
      <trkpt lat="45.97978" lon="-1.0406">
        <ele>4</ele>
        <time>2020-07-13T18:58:24Z</time>
      </trkpt>
    </trkseg>
  </trk>
</gpx>